Sao Luiz, Brazil
Current Conditions -  °F | °C
As of 4:00 PM on Thursday 29 Jan 2015 (Local Time) from SBBV Reporting Station
Broken Clouds Broken Clouds  
Wind Chill: 75°   Ceiling: 2500
Heat Index: 75°   Visibility: 6mi
Dew Point: 68°   Wind: 5mph
Humidity: 78%   Direction: 100°E
Pressure: 29.83"   Gusts: NA
Location:  1.01°N, 60.02°W
Report Text: SBBV 292000Z 10004KT 9999 FEW006 BKN025 FEW030TCU BKN100 24/20 Q1010
Loading
Personal Weather Stations






























Interactive Weather Map New forecast layout! Learn more

10-Day Weather Forecast

Advertisements
Track Severe Weather on mobile